Time;durP1;ratioP1;P1;durP2;ratioP2;P2;SDS_P1;SDS_P2;PMS_P1;PMS_P2;Temp;Humidity;BMP_temperature;BMP_pressure;BME280_temperature;BME280_humidity;BME280_pressure;Samples;Min_cycle;Max_cycle;Signal;HPM_P1;HPM_P2
2023/12/16 11:10:14;;;;;;;;;;;;;;;8.44;100;103811.4;;;;-80
2023/12/16 11:11:45;;;;;;;32.7;11.1;;;;;;;;;;;;;-80
2023/12/16 11:15:33;;;;;;;;;;;;;;;8.47;100;103805.4;;;;-80
2023/12/16 11:25:20;;;;;;;;;;;;;;;8.51;100;103798;;;;-82
2023/12/16 11:30:16;;;;;;;;;;;;;;;8.55;100;103789.1;;;;-80
2023/12/16 11:35:24;;;;;;;;;;;;;;;8.57;100;103784.4;;;;-82
2023/12/16 11:40:31;;;;;;;;;;;;;;;8.6;100;103774.9;;;;-80
2023/12/16 11:41:51;;;;;;;25.3;9.3;;;;;;;;;;;;;-80
2023/12/16 11:45:14;;;;;;;;;;;;;;;8.64;100;103756.8;;;;-81
2023/12/16 11:50:17;;;;;;;;;;;;;;;8.66;100;103754.4;;;;-81
2023/12/16 11:55:17;;;;;;;;;;;;;;;8.68;100;103756;;;;-80
2023/12/16 12:00:24;;;;;;;;;;;;;;;8.71;100;103750.9;;;;-82
2023/12/16 12:05:17;;;;;;;;;;;;;;;8.75;100;103757.3;;;;-82
2023/12/16 12:10:16;;;;;;;;;;;;;;;8.78;100;103741.8;;;;-81
2023/12/16 12:12:01;;;;;;;23.3;8.4;;;;;;;;;;;;;-81
2023/12/16 12:15:18;;;;;;;;;;;;;;;8.83;100;103743.9;;;;-81
2023/12/16 12:20:31;;;;;;;;;;;;;;;8.9;100;103753;;;;-82
2023/12/16 12:25:15;;;;;;;;;;;;;;;8.9;100;103752.9;;;;-82
2023/12/16 12:30:22;;;;;;;;;;;;;;;8.92;100;103747.9;;;;-82
2023/12/16 12:35:14;;;;;;;;;;;;;;;8.95;100;103747.1;;;;-82
2023/12/16 12:40:19;;;;;;;;;;;;;;;8.94;100;103731.1;;;;-81
2023/12/16 12:41:45;;;;;;;15.6;4.7;;;;;;;;;;;;;-83
2023/12/16 12:50:38;;;;;;;;;;;;;;;8.95;100;103731.4;;;;-82
2023/12/16 12:55:14;;;;;;;;;;;;;;;8.97;100;103732.4;;;;-81
2023/12/16 13:00:22;;;;;;;;;;;;;;;9;100;103721.6;;;;-81
2023/12/16 13:05:19;;;;;;;;;;;;;;;9.01;100;103718.1;;;;-82
2023/12/16 13:10:20;;;;;;;;;;;;;;;9.03;100;103703.9;;;;-84
2023/12/16 13:11:47;;;;;;;17.4;6;;;;;;;;;;;;;-81
2023/12/16 13:15:16;;;;;;;;;;;;;;;9;100;103695.3;;;;-82
2023/12/16 13:20:12;;;;;;;;;;;;;;;9.02;100;103696;;;;-82
2023/12/16 13:25:15;;;;;;;;;;;;;;;9.02;100;103700.1;;;;-81
2023/12/16 13:30:13;;;;;;;;;;;;;;;9.02;100;103694.4;;;;-82
2023/12/16 13:35:12;;;;;;;;;;;;;;;9.01;100;103693.8;;;;-82
2023/12/16 13:40:13;;;;;;;;;;;;;;;9.02;100;103689.1;;;;-81
2023/12/16 13:41:46;;;;;;;14.8;4.9;;;;;;;;;;;;;-80
2023/12/16 13:45:17;;;;;;;;;;;;;;;9;100;103681.4;;;;-83
2023/12/16 13:50:12;;;;;;;;;;;;;;;9.01;100;103667.6;;;;-81
2023/12/16 13:55:12;;;;;;;;;;;;;;;9.01;100;103666.8;;;;-81
2023/12/16 14:00:15;;;;;;;;;;;;;;;9.04;100;103663;;;;-81
2023/12/16 14:05:17;;;;;;;;;;;;;;;9.08;100;103658.1;;;;-81
2023/12/16 14:10:27;;;;;;;;;;;;;;;9.08;100;103669.8;;;;-81
2023/12/16 14:11:49;;;;;;;18.4;6.5;;;;;;;;;;;;;-82
2023/12/16 14:15:13;;;;;;;;;;;;;;;9.09;100;103641.6;;;;-82
2023/12/16 14:20:13;;;;;;;;;;;;;;;8.97;100;103602.1;;;;-81
2023/12/16 14:25:13;;;;;;;;;;;;;;;9.1;100;103616.3;;;;-81
2023/12/16 14:30:12;;;;;;;;;;;;;;;9.09;100;103625.8;;;;-81
2023/12/16 14:35:14;;;;;;;;;;;;;;;9.11;100;103628.7;;;;-80
2023/12/16 14:40:12;;;;;;;;;;;;;;;9.12;100;103635.8;;;;-82
2023/12/16 14:41:47;;;;;;;20.7;6.5;;;;;;;;;;;;;-81
2023/12/16 14:45:12;;;;;;;;;;;;;;;9.09;100;103639.9;;;;-81
2023/12/16 14:50:12;;;;;;;;;;;;;;;9.07;100;103638.6;;;;-81
2023/12/16 14:55:12;;;;;;;;;;;;;;;9.09;100;103651;;;;-80
2023/12/16 15:00:13;;;;;;;;;;;;;;;9.07;100;103657.7;;;;-80
2023/12/16 15:05:15;;;;;;;;;;;;;;;9.09;100;103667.3;;;;-80
2023/12/16 15:10:14;;;;;;;;;;;;;;;9.1;100;103665.1;;;;-81
2023/12/16 15:11:50;;;;;;;18.8;7.5;;;;;;;;;;;;;-82
2023/12/16 15:15:14;;;;;;;;;;;;;;;9.09;100;103661.1;;;;-80
2023/12/16 15:20:18;;;;;;;;;;;;;;;9.08;100;103672.1;;;;-81
2023/12/16 15:25:18;;;;;;;;;;;;;;;9.07;100;103674.5;;;;-81
2023/12/16 15:30:13;;;;;;;;;;;;;;;9.07;100;103676.1;;;;-80
2023/12/16 15:35:16;;;;;;;;;;;;;;;9.06;100;103668;;;;-82
2023/12/16 15:40:32;;;;;;;;;;;;;;;9.02;100;103673.3;;;;-81
2023/12/16 15:41:52;;;;;;;25.7;8;;;;;;;;;;;;;-82
2023/12/16 15:45:13;;;;;;;;;;;;;;;9.06;100;103678.1;;;;-82
2023/12/16 15:50:14;;;;;;;;;;;;;;;9.07;100;103666.2;;;;-82
2023/12/16 15:55:13;;;;;;;;;;;;;;;9.09;100;103681;;;;-82
2023/12/16 16:00:14;;;;;;;;;;;;;;;9.1;100;103684.2;;;;-81
2023/12/16 16:05:17;;;;;;;;;;;;;;;9.16;100;103674.6;;;;-81
2023/12/16 16:10:13;;;;;;;;;;;;;;;9.18;100;103647.6;;;;-81
2023/12/16 16:11:52;;;;;;;19.4;7.4;;;;;;;;;;;;;-82
2023/12/16 16:15:15;;;;;;;;;;;;;;;9.16;100;103641.7;;;;-82
2023/12/16 16:20:12;;;;;;;;;;;;;;;9.19;100;103637.7;;;;-81
2023/12/16 16:25:12;;;;;;;;;;;;;;;9.19;100;103633.4;;;;-82
2023/12/16 16:30:18;;;;;;;;;;;;;;;9.21;100;103611.7;;;;-80
2023/12/16 16:35:12;;;;;;;;;;;;;;;9.25;100;103617.8;;;;-82
2023/12/16 16:40:17;;;;;;;;;;;;;;;9.23;100;103638.6;;;;-82
2023/12/16 16:41:54;;;;;;;25.5;7.7;;;;;;;;;;;;;-81
2023/12/16 16:45:23;;;;;;;;;;;;;;;9.28;100;103650.7;;;;-82
2023/12/16 16:50:16;;;;;;;;;;;;;;;9.3;100;103651.2;;;;-80
2023/12/16 16:55:24;;;;;;;;;;;;;;;9.34;100;103625.7;;;;-81
2023/12/16 17:00:21;;;;;;;;;;;;;;;9.39;100;103615.7;;;;-82
2023/12/16 17:05:17;;;;;;;;;;;;;;;9.41;100;103619.8;;;;-81
2023/12/16 17:10:15;;;;;;;;;;;;;;;9.38;100;103624.5;;;;-82
2023/12/16 17:11:59;;;;;;;14.6;6.2;;;;;;;;;;;;;-80
2023/12/16 17:15:14;;;;;;;;;;;;;;;9.42;100;103611.7;;;;-81
2023/12/16 17:20:16;;;;;;;;;;;;;;;9.43;100;103610.9;;;;-81
2023/12/16 17:25:19;;;;;;;;;;;;;;;9.44;100;103622.5;;;;-81
2023/12/16 17:30:14;;;;;;;;;;;;;;;9.46;100;103627.2;;;;-81
2023/12/16 17:35:13;;;;;;;;;;;;;;;9.52;100;103644.7;;;;-80
2023/12/16 17:40:12;;;;;;;;;;;;;;;9.56;100;103652.2;;;;-81
2023/12/16 17:41:52;;;;;;;19.6;8.7;;;;;;;;;;;;;-82
2023/12/16 17:45:15;;;;;;;;;;;;;;;9.54;100;103670.4;;;;-83
2023/12/16 17:50:14;;;;;;;;;;;;;;;9.56;100;103675.5;;;;-81
2023/12/16 17:55:15;;;;;;;;;;;;;;;9.57;100;103673.2;;;;-81
2023/12/16 18:00:11;;;;;;;;;;;;;;;9.62;100;103676.2;;;;-81
2023/12/16 18:05:18;;;;;;;;;;;;;;;9.58;100;103656.2;;;;-81
2023/12/16 18:10:13;;;;;;;;;;;;;;;9.58;100;103645.5;;;;-82
2023/12/16 18:11:52;;;;;;;13.7;7;;;;;;;;;;;;;-81
2023/12/16 18:15:14;;;;;;;;;;;;;;;9.61;100;103653.3;;;;-81
2023/12/16 18:20:14;;;;;;;;;;;;;;;9.6;100;103663.1;;;;-81
2023/12/16 18:25:17;;;;;;;;;;;;;;;9.62;100;103668.3;;;;-83
2023/12/16 18:30:21;;;;;;;;;;;;;;;9.63;100;103665.5;;;;-83
2023/12/16 18:35:19;;;;;;;;;;;;;;;9.66;100;103674.1;;;;-84
2023/12/16 18:40:18;;;;;;;;;;;;;;;9.69;100;103689.7;;;;-83
2023/12/16 18:41:55;;;;;;;18;10.1;;;;;;;;;;;;;-83
2023/12/16 18:45:17;;;;;;;;;;;;;;;9.71;100;103688.6;;;;-84
2023/12/16 18:50:17;;;;;;;;;;;;;;;9.79;100;103698.7;;;;-83
2023/12/16 18:55:14;;;;;;;;;;;;;;;9.81;100;103710.3;;;;-83
2023/12/16 19:00:15;;;;;;;;;;;;;;;9.82;100;103714.6;;;;-83
2023/12/16 19:05:12;;;;;;;;;;;;;;;9.88;100;103689.6;;;;-85
2023/12/16 19:10:37;;;;;;;;;;;;;;;9.89;100;103711.2;;;;-84
2023/12/16 19:12:05;;;;;;;;;;;;;;;;;;;;;
2023/12/16 19:18:29;;;;;;;;;;;;;;;9.9;100;103738.3;;;;-81
2023/12/16 19:23:31;;;;;;;;;;;;;;;9.93;100;103740.7;;;;-83
2023/12/16 19:28:32;;;;;;;;;;;;;;;9.95;100;103744.9;;;;-82
2023/12/16 19:33:36;;;;;;;;;;;;;;;9.95;100;103724.2;;;;-81
2023/12/16 19:38:31;;;;;;;;;;;;;;;9.94;100;103709;;;;-83
2023/12/16 19:41:59;;;;;;;16.5;7.5;;;;;;;;;;;;;-82
2023/12/16 19:43:29;;;;;;;;;;;;;;;9.93;100;103696.1;;;;-81
2023/12/16 19:48:33;;;;;;;;;;;;;;;9.97;100;103695.6;;;;-80
2023/12/16 19:53:38;;;;;;;;;;;;;;;9.95;100;103693.7;;;;-81
2023/12/16 19:58:33;;;;;;;;;;;;;;;9.92;100;103707.1;;;;-82
2023/12/16 20:03:43;;;;;;;;;;;;;;;9.99;100;103698.3;;;;-80
2023/12/16 20:08:37;;;;;;;;;;;;;;;9.97;100;103684.4;;;;-81
2023/12/16 20:11:55;;;;;;;16.2;6;;;;;;;;;;;;;-81
2023/12/16 20:13:34;;;;;;;;;;;;;;;9.92;100;103696.1;;;;-81
2023/12/16 20:18:33;;;;;;;;;;;;;;;9.92;100;103700.4;;;;-83
2023/12/16 20:23:33;;;;;;;;;;;;;;;9.94;100;103702.7;;;;-81
2023/12/16 20:28:31;;;;;;;;;;;;;;;9.91;100;103690.2;;;;-82
2023/12/16 20:33:31;;;;;;;;;;;;;;;9.91;100;103676;;;;-80
2023/12/16 20:41:59;;;;;;;18.8;6.3;;;;;;;;;;;;;-80
2023/12/16 20:43:36;;;;;;;;;;;;;;;9.92;100;103677.3;;;;-81
2023/12/16 20:48:54;;;;;;;;;;;;;;;9.93;100;103689.7;;;;-83
2023/12/16 20:58:36;;;;;;;;;;;;;;;9.94;100;103692;;;;-81
2023/12/16 21:03:30;;;;;;;;;;;;;;;9.96;100;103667.8;;;;-79
2023/12/16 21:08:29;;;;;;;;;;;;;;;9.86;100;103664.2;;;;-78
2023/12/16 21:11:59;;;;;;;20.5;7.4;;;;;;;;;;;;;-80
2023/12/16 21:13:31;;;;;;;;;;;;;;;9.88;100;103675.5;;;;-81
2023/12/16 21:18:30;;;;;;;;;;;;;;;9.93;100;103683.3;;;;-80
2023/12/16 21:23:29;;;;;;;;;;;;;;;9.95;100;103693.2;;;;-78
2023/12/16 21:28:32;;;;;;;;;;;;;;;9.92;100;103679.4;;;;-80
2023/12/16 21:33:29;;;;;;;;;;;;;;;9.79;100;103663.8;;;;-81
2023/12/16 21:38:31;;;;;;;;;;;;;;;9.7;100;103657;;;;-78
2023/12/16 21:41:57;;;;;;;20;6.3;;;;;;;;;;;;;-79
2023/12/16 21:43:32;;;;;;;;;;;;;;;9.62;100;103654.1;;;;-79
2023/12/16 21:48:30;;;;;;;;;;;;;;;9.57;100;103671.8;;;;-78
2023/12/16 21:53:29;;;;;;;;;;;;;;;9.61;100;103658.1;;;;-79
2023/12/16 21:58:31;;;;;;;;;;;;;;;9.66;100;103657.3;;;;-80
2023/12/16 22:03:29;;;;;;;;;;;;;;;9.68;100;103664.9;;;;-79
2023/12/16 22:08:29;;;;;;;;;;;;;;;9.73;100;103682.5;;;;-79
2023/12/16 22:11:59;;;;;;;22.7;7.5;;;;;;;;;;;;;-79
2023/12/16 22:13:33;;;;;;;;;;;;;;;9.74;100;103676.8;;;;-80
2023/12/16 22:18:29;;;;;;;;;;;;;;;9.72;100;103678;;;;-79
2023/12/16 22:23:31;;;;;;;;;;;;;;;9.69;100;103681.2;;;;-78
2023/12/16 22:28:30;;;;;;;;;;;;;;;9.71;100;103681.1;;;;-79
2023/12/16 22:33:30;;;;;;;;;;;;;;;9.63;100;103671;;;;-79
2023/12/16 22:38:29;;;;;;;;;;;;;;;9.61;100;103673.7;;;;-81
2023/12/16 22:42:02;;;;;;;21.2;6.8;;;;;;;;;;;;;-79
2023/12/16 22:43:31;;;;;;;;;;;;;;;9.61;100;103677.5;;;;-80
2023/12/16 22:48:29;;;;;;;;;;;;;;;9.56;100;103677.7;;;;-80
2023/12/16 22:53:32;;;;;;;;;;;;;;;9.49;100;103677.8;;;;-79
2023/12/16 22:58:29;;;;;;;;;;;;;;;9.44;100;103679.4;;;;-80
2023/12/16 23:03:29;;;;;;;;;;;;;;;9.46;100;103687.3;;;;-79
2023/12/16 23:08:29;;;;;;;;;;;;;;;9.47;100;103690;;;;-78
2023/12/16 23:12:05;;;;;;;20.1;4.9;;;;;;;;;;;;;-79
2023/12/16 23:13:31;;;;;;;;;;;;;;;9.45;100;103687.9;;;;-80
2023/12/16 23:18:29;;;;;;;;;;;;;;;9.43;100;103675.6;;;;-79
2023/12/16 23:23:34;;;;;;;;;;;;;;;9.43;100;103673;;;;-78
2023/12/16 23:28:29;;;;;;;;;;;;;;;9.38;100;103678;;;;-78
2023/12/16 23:33:28;;;;;;;;;;;;;;;9.33;100;103660.2;;;;-79
2023/12/16 23:38:33;;;;;;;;;;;;;;;9.38;100;103659.3;;;;-79
2023/12/16 23:41:59;;;;;;;20.8;6.1;;;;;;;;;;;;;-77
2023/12/16 23:43:32;;;;;;;;;;;;;;;9.37;100;103651;;;;-80
2023/12/16 23:48:31;;;;;;;;;;;;;;;9.39;100;103668.5;;;;-80
2023/12/16 23:53:29;;;;;;;;;;;;;;;9.37;100;103677.8;;;;-78
2023/12/16 23:58:37;;;;;;;;;;;;;;;9.38;100;103669.6;;;;-78
